sensor_id;sensor_type;location;lat;lon;timestamp;P1;durP1;ratioP1;P2;durP2;ratioP2
73571;SDS011;61854;48.510;-2.770;2023-09-18T00:00:46;3.75;;;2.35;;
73571;SDS011;61854;48.510;-2.770;2023-09-18T00:03:19;3.88;;;2.40;;
73571;SDS011;61854;48.510;-2.770;2023-09-18T00:05:46;3.72;;;2.28;;
73571;SDS011;61854;48.510;-2.770;2023-09-18T00:08:15;8.25;;;2.40;;
73571;SDS011;61854;48.510;-2.770;2023-09-18T00:10:42;5.90;;;2.55;;
73571;SDS011;61854;48.510;-2.770;2023-09-18T00:13:12;4.50;;;2.60;;
73571;SDS011;61854;48.510;-2.770;2023-09-18T00:15:38;3.22;;;2.30;;
73571;SDS011;61854;48.510;-2.770;2023-09-18T00:18:06;4.35;;;2.50;;
73571;SDS011;61854;48.510;-2.770;2023-09-18T00:20:32;5.18;;;2.67;;
73571;SDS011;61854;48.510;-2.770;2023-09-18T00:22:57;5.82;;;2.60;;
73571;SDS011;61854;48.510;-2.770;2023-09-18T00:25:23;6.13;;;2.70;;
73571;SDS011;61854;48.510;-2.770;2023-09-18T00:27:49;4.57;;;2.30;;
73571;SDS011;61854;48.510;-2.770;2023-09-18T00:30:14;5.03;;;3.03;;
73571;SDS011;61854;48.510;-2.770;2023-09-18T00:32:40;6.38;;;2.80;;
73571;SDS011;61854;48.510;-2.770;2023-09-18T00:35:06;5.93;;;2.90;;
73571;SDS011;61854;48.510;-2.770;2023-09-18T00:37:32;5.40;;;2.80;;
73571;SDS011;61854;48.510;-2.770;2023-09-18T00:39:57;5.65;;;3.17;;
73571;SDS011;61854;48.510;-2.770;2023-09-18T00:42:24;7.03;;;2.70;;
73571;SDS011;61854;48.510;-2.770;2023-09-18T00:44:50;5.18;;;2.67;;
73571;SDS011;61854;48.510;-2.770;2023-09-18T00:47:15;5.47;;;3.42;;
73571;SDS011;61854;48.510;-2.770;2023-09-18T00:49:43;6.22;;;2.88;;
73571;SDS011;61854;48.510;-2.770;2023-09-18T00:52:12;9.32;;;3.22;;
73571;SDS011;61854;48.510;-2.770;2023-09-18T00:54:39;6.25;;;2.88;;
73571;SDS011;61854;48.510;-2.770;2023-09-18T00:57:08;5.88;;;3.50;;
73571;SDS011;61854;48.510;-2.770;2023-09-18T00:59:35;7.50;;;3.13;;
73571;SDS011;61854;48.510;-2.770;2023-09-18T01:02:02;5.97;;;3.35;;
73571;SDS011;61854;48.510;-2.770;2023-09-18T01:04:28;5.93;;;3.10;;
73571;SDS011;61854;48.510;-2.770;2023-09-18T01:06:55;8.05;;;3.50;;
73571;SDS011;61854;48.510;-2.770;2023-09-18T01:09:23;7.65;;;3.35;;
73571;SDS011;61854;48.510;-2.770;2023-09-18T01:11:54;5.88;;;3.65;;
73571;SDS011;61854;48.510;-2.770;2023-09-18T01:17:22;6.40;;;3.63;;
73571;SDS011;61854;48.510;-2.770;2023-09-18T01:19:49;10.48;;;3.85;;
73571;SDS011;61854;48.510;-2.770;2023-09-18T01:22:16;6.35;;;3.63;;
73571;SDS011;61854;48.510;-2.770;2023-09-18T01:27:13;7.40;;;3.72;;
73571;SDS011;61854;48.510;-2.770;2023-09-18T01:29:42;5.40;;;3.80;;
73571;SDS011;61854;48.510;-2.770;2023-09-18T01:32:08;8.55;;;4.00;;
73571;SDS011;61854;48.510;-2.770;2023-09-18T01:34:35;6.60;;;3.70;;
73571;SDS011;61854;48.510;-2.770;2023-09-18T01:37:06;5.93;;;4.00;;
73571;SDS011;61854;48.510;-2.770;2023-09-18T01:39:34;6.88;;;4.40;;
73571;SDS011;61854;48.510;-2.770;2023-09-18T01:42:01;6.43;;;4.10;;
73571;SDS011;61854;48.510;-2.770;2023-09-18T01:44:32;8.43;;;4.25;;
73571;SDS011;61854;48.510;-2.770;2023-09-18T01:46:59;7.05;;;4.20;;
73571;SDS011;61854;48.510;-2.770;2023-09-18T01:51:53;8.68;;;4.57;;
73571;SDS011;61854;48.510;-2.770;2023-09-18T01:54:19;7.18;;;4.82;;
73571;SDS011;61854;48.510;-2.770;2023-09-18T01:56:45;8.10;;;4.60;;
73571;SDS011;61854;48.510;-2.770;2023-09-18T01:59:10;8.98;;;5.00;;
73571;SDS011;61854;48.510;-2.770;2023-09-18T02:01:36;10.93;;;5.22;;
73571;SDS011;61854;48.510;-2.770;2023-09-18T02:04:03;7.80;;;5.50;;
73571;SDS011;61854;48.510;-2.770;2023-09-18T02:06:29;9.98;;;5.00;;
73571;SDS011;61854;48.510;-2.770;2023-09-18T02:08:55;10.27;;;4.80;;
73571;SDS011;61854;48.510;-2.770;2023-09-18T02:11:20;10.65;;;4.93;;
73571;SDS011;61854;48.510;-2.770;2023-09-18T02:13:49;10.27;;;4.95;;
73571;SDS011;61854;48.510;-2.770;2023-09-18T02:16:15;7.07;;;4.82;;
73571;SDS011;61854;48.510;-2.770;2023-09-18T02:18:40;7.90;;;5.18;;
73571;SDS011;61854;48.510;-2.770;2023-09-18T02:21:06;10.60;;;5.35;;
73571;SDS011;61854;48.510;-2.770;2023-09-18T02:23:32;9.05;;;5.57;;
73571;SDS011;61854;48.510;-2.770;2023-09-18T02:25:57;7.10;;;5.63;;
73571;SDS011;61854;48.510;-2.770;2023-09-18T02:28:23;8.30;;;5.50;;
73571;SDS011;61854;48.510;-2.770;2023-09-18T02:30:49;8.55;;;5.35;;
73571;SDS011;61854;48.510;-2.770;2023-09-18T02:33:15;9.38;;;5.57;;
73571;SDS011;61854;48.510;-2.770;2023-09-18T02:35:41;8.88;;;5.03;;
73571;SDS011;61854;48.510;-2.770;2023-09-18T02:38:08;8.17;;;4.60;;
73571;SDS011;61854;48.510;-2.770;2023-09-18T02:40:34;7.70;;;4.93;;
73571;SDS011;61854;48.510;-2.770;2023-09-18T02:43:00;6.95;;;4.53;;
73571;SDS011;61854;48.510;-2.770;2023-09-18T02:45:27;8.82;;;5.25;;
73571;SDS011;61854;48.510;-2.770;2023-09-18T02:47:52;10.07;;;5.22;;
73571;SDS011;61854;48.510;-2.770;2023-09-18T02:50:18;7.55;;;4.57;;
73571;SDS011;61854;48.510;-2.770;2023-09-18T02:52:44;6.93;;;4.80;;
73571;SDS011;61854;48.510;-2.770;2023-09-18T02:55:09;6.13;;;4.53;;
73571;SDS011;61854;48.510;-2.770;2023-09-18T02:57:35;10.90;;;4.80;;
73571;SDS011;61854;48.510;-2.770;2023-09-18T03:00:04;7.28;;;4.78;;
73571;SDS011;61854;48.510;-2.770;2023-09-18T03:02:30;6.18;;;4.35;;
73571;SDS011;61854;48.510;-2.770;2023-09-18T03:04:55;7.80;;;5.05;;
73571;SDS011;61854;48.510;-2.770;2023-09-18T03:07:21;8.60;;;4.47;;
73571;SDS011;61854;48.510;-2.770;2023-09-18T03:09:47;7.05;;;4.43;;
73571;SDS011;61854;48.510;-2.770;2023-09-18T03:12:13;7.80;;;4.80;;
73571;SDS011;61854;48.510;-2.770;2023-09-18T03:14:38;7.25;;;4.55;;
73571;SDS011;61854;48.510;-2.770;2023-09-18T03:17:04;6.35;;;3.75;;
73571;SDS011;61854;48.510;-2.770;2023-09-18T03:19:30;7.72;;;4.78;;
73571;SDS011;61854;48.510;-2.770;2023-09-18T03:21:55;7.53;;;4.22;;
73571;SDS011;61854;48.510;-2.770;2023-09-18T03:24:21;7.63;;;4.22;;
73571;SDS011;61854;48.510;-2.770;2023-09-18T03:26:47;5.60;;;4.07;;
73571;SDS011;61854;48.510;-2.770;2023-09-18T03:29:14;6.50;;;4.75;;
73571;SDS011;61854;48.510;-2.770;2023-09-18T03:31:40;7.68;;;4.82;;
73571;SDS011;61854;48.510;-2.770;2023-09-18T03:34:05;6.30;;;5.25;;
73571;SDS011;61854;48.510;-2.770;2023-09-18T03:36:31;7.43;;;4.93;;
73571;SDS011;61854;48.510;-2.770;2023-09-18T03:38:57;5.90;;;4.53;;
73571;SDS011;61854;48.510;-2.770;2023-09-18T03:41:23;9.02;;;4.88;;
73571;SDS011;61854;48.510;-2.770;2023-09-18T03:43:49;5.25;;;4.45;;
73571;SDS011;61854;48.510;-2.770;2023-09-18T03:46:15;6.38;;;4.40;;
73571;SDS011;61854;48.510;-2.770;2023-09-18T03:48:41;7.00;;;4.40;;
73571;SDS011;61854;48.510;-2.770;2023-09-18T03:51:07;5.90;;;4.50;;
73571;SDS011;61854;48.510;-2.770;2023-09-18T03:53:33;5.40;;;3.83;;
73571;SDS011;61854;48.510;-2.770;2023-09-18T03:55:59;7.47;;;4.57;;
73571;SDS011;61854;48.510;-2.770;2023-09-18T03:58:25;7.20;;;4.03;;
73571;SDS011;61854;48.510;-2.770;2023-09-18T04:00:51;9.68;;;4.15;;
73571;SDS011;61854;48.510;-2.770;2023-09-18T04:03:17;5.57;;;4.18;;
73571;SDS011;61854;48.510;-2.770;2023-09-18T04:05:44;6.38;;;4.55;;
73571;SDS011;61854;48.510;-2.770;2023-09-18T04:08:10;6.65;;;4.47;;
73571;SDS011;61854;48.510;-2.770;2023-09-18T04:10:36;8.63;;;4.90;;
73571;SDS011;61854;48.510;-2.770;2023-09-18T04:13:02;8.13;;;4.75;;
73571;SDS011;61854;48.510;-2.770;2023-09-18T04:15:29;8.07;;;4.65;;
73571;SDS011;61854;48.510;-2.770;2023-09-18T04:17:57;6.07;;;4.30;;
73571;SDS011;61854;48.510;-2.770;2023-09-18T04:20:23;11.82;;;4.60;;
73571;SDS011;61854;48.510;-2.770;2023-09-18T04:22:59;6.35;;;4.82;;
73571;SDS011;61854;48.510;-2.770;2023-09-18T04:25:45;9.90;;;4.90;;
73571;SDS011;61854;48.510;-2.770;2023-09-18T04:28:15;6.78;;;4.50;;
73571;SDS011;61854;48.510;-2.770;2023-09-18T04:30:42;9.23;;;4.40;;
73571;SDS011;61854;48.510;-2.770;2023-09-18T04:33:08;8.75;;;4.53;;
73571;SDS011;61854;48.510;-2.770;2023-09-18T04:35:33;7.15;;;4.40;;
73571;SDS011;61854;48.510;-2.770;2023-09-18T04:37:59;9.15;;;4.63;;
73571;SDS011;61854;48.510;-2.770;2023-09-18T04:40:25;6.68;;;4.43;;
73571;SDS011;61854;48.510;-2.770;2023-09-18T04:42:57;10.52;;;4.55;;
73571;SDS011;61854;48.510;-2.770;2023-09-18T04:45:23;9.32;;;4.57;;
73571;SDS011;61854;48.510;-2.770;2023-09-18T04:47:50;9.70;;;4.43;;
73571;SDS011;61854;48.510;-2.770;2023-09-18T04:50:15;7.07;;;4.60;;
73571;SDS011;61854;48.510;-2.770;2023-09-18T04:52:41;8.60;;;4.55;;
73571;SDS011;61854;48.510;-2.770;2023-09-18T04:55:07;6.40;;;4.25;;
73571;SDS011;61854;48.510;-2.770;2023-09-18T04:57:33;6.70;;;3.92;;
73571;SDS011;61854;48.510;-2.770;2023-09-18T04:59:59;8.00;;;3.90;;
73571;SDS011;61854;48.510;-2.770;2023-09-18T05:02:25;6.88;;;3.92;;
73571;SDS011;61854;48.510;-2.770;2023-09-18T05:04:51;8.40;;;4.00;;
73571;SDS011;61854;48.510;-2.770;2023-09-18T05:07:17;5.88;;;3.58;;
73571;SDS011;61854;48.510;-2.770;2023-09-18T05:09:43;4.75;;;2.88;;
73571;SDS011;61854;48.510;-2.770;2023-09-18T05:12:09;7.05;;;4.03;;
73571;SDS011;61854;48.510;-2.770;2023-09-18T05:14:39;7.43;;;3.55;;
73571;SDS011;61854;48.510;-2.770;2023-09-18T05:17:05;5.63;;;3.45;;
73571;SDS011;61854;48.510;-2.770;2023-09-18T05:19:31;8.35;;;3.80;;
73571;SDS011;61854;48.510;-2.770;2023-09-18T05:21:57;4.88;;;3.05;;
73571;SDS011;61854;48.510;-2.770;2023-09-18T05:24:23;5.38;;;3.15;;
73571;SDS011;61854;48.510;-2.770;2023-09-18T05:26:52;6.45;;;3.63;;
73571;SDS011;61854;48.510;-2.770;2023-09-18T05:29:19;6.50;;;3.33;;
73571;SDS011;61854;48.510;-2.770;2023-09-18T05:31:45;8.00;;;3.13;;
73571;SDS011;61854;48.510;-2.770;2023-09-18T05:34:11;4.85;;;3.22;;
73571;SDS011;61854;48.510;-2.770;2023-09-18T05:36:37;5.28;;;3.40;;
73571;SDS011;61854;48.510;-2.770;2023-09-18T05:39:03;7.72;;;3.30;;
73571;SDS011;61854;48.510;-2.770;2023-09-18T05:41:29;8.43;;;3.50;;
73571;SDS011;61854;48.510;-2.770;2023-09-18T05:43:58;7.75;;;3.47;;
73571;SDS011;61854;48.510;-2.770;2023-09-18T05:46:24;4.93;;;3.03;;
73571;SDS011;61854;48.510;-2.770;2023-09-18T05:48:49;7.53;;;3.35;;
73571;SDS011;61854;48.510;-2.770;2023-09-18T05:51:15;8.25;;;3.25;;
73571;SDS011;61854;48.510;-2.770;2023-09-18T05:53:41;6.95;;;3.25;;
73571;SDS011;61854;48.510;-2.770;2023-09-18T05:56:07;7.28;;;2.72;;
73571;SDS011;61854;48.510;-2.770;2023-09-18T05:58:34;8.38;;;2.97;;
73571;SDS011;61854;48.510;-2.770;2023-09-18T06:01:01;8.02;;;3.35;;
73571;SDS011;61854;48.510;-2.770;2023-09-18T06:03:26;5.25;;;2.47;;
73571;SDS011;61854;48.510;-2.770;2023-09-18T06:05:55;6.25;;;3.08;;
73571;SDS011;61854;48.510;-2.770;2023-09-18T06:08:21;6.35;;;3.05;;
73571;SDS011;61854;48.510;-2.770;2023-09-18T06:10:47;8.80;;;3.17;;
73571;SDS011;61854;48.510;-2.770;2023-09-18T06:13:13;7.45;;;3.03;;
73571;SDS011;61854;48.510;-2.770;2023-09-18T06:15:39;5.72;;;3.08;;
73571;SDS011;61854;48.510;-2.770;2023-09-18T06:18:04;5.93;;;3.10;;
73571;SDS011;61854;48.510;-2.770;2023-09-18T06:20:31;8.02;;;2.83;;
73571;SDS011;61854;48.510;-2.770;2023-09-18T06:22:57;7.22;;;3.10;;
73571;SDS011;61854;48.510;-2.770;2023-09-18T06:25:24;6.47;;;2.78;;
73571;SDS011;61854;48.510;-2.770;2023-09-18T06:27:51;4.95;;;3.28;;
73571;SDS011;61854;48.510;-2.770;2023-09-18T06:30:17;5.63;;;3.20;;
73571;SDS011;61854;48.510;-2.770;2023-09-18T06:32:43;6.53;;;2.85;;
73571;SDS011;61854;48.510;-2.770;2023-09-18T06:35:09;6.85;;;2.35;;
73571;SDS011;61854;48.510;-2.770;2023-09-18T06:37:35;4.95;;;2.40;;
73571;SDS011;61854;48.510;-2.770;2023-09-18T06:40:00;4.78;;;2.20;;
73571;SDS011;61854;48.510;-2.770;2023-09-18T06:42:28;8.48;;;2.63;;
73571;SDS011;61854;48.510;-2.770;2023-09-18T06:44:54;8.55;;;2.70;;
73571;SDS011;61854;48.510;-2.770;2023-09-18T06:47:21;4.82;;;2.40;;
73571;SDS011;61854;48.510;-2.770;2023-09-18T06:49:49;6.47;;;2.58;;
73571;SDS011;61854;48.510;-2.770;2023-09-18T06:52:15;5.03;;;2.13;;
73571;SDS011;61854;48.510;-2.770;2023-09-18T06:54:41;7.43;;;2.28;;
73571;SDS011;61854;48.510;-2.770;2023-09-18T06:57:08;9.15;;;2.10;;
73571;SDS011;61854;48.510;-2.770;2023-09-18T06:59:34;7.50;;;2.10;;
73571;SDS011;61854;48.510;-2.770;2023-09-18T07:02:00;5.78;;;2.25;;
73571;SDS011;61854;48.510;-2.770;2023-09-18T07:04:27;6.78;;;1.80;;
73571;SDS011;61854;48.510;-2.770;2023-09-18T07:06:53;3.65;;;1.70;;
73571;SDS011;61854;48.510;-2.770;2023-09-18T07:09:19;6.00;;;2.05;;
73571;SDS011;61854;48.510;-2.770;2023-09-18T07:11:48;3.83;;;1.52;;
73571;SDS011;61854;48.510;-2.770;2023-09-18T07:14:14;3.60;;;1.23;;
73571;SDS011;61854;48.510;-2.770;2023-09-18T07:16:40;3.72;;;1.80;;
73571;SDS011;61854;48.510;-2.770;2023-09-18T07:19:06;5.60;;;1.50;;
73571;SDS011;61854;48.510;-2.770;2023-09-18T07:21:32;5.18;;;1.70;;
73571;SDS011;61854;48.510;-2.770;2023-09-18T07:23:59;4.00;;;1.60;;
73571;SDS011;61854;48.510;-2.770;2023-09-18T07:26:25;3.88;;;1.33;;
73571;SDS011;61854;48.510;-2.770;2023-09-18T07:28:51;2.45;;;1.40;;
73571;SDS011;61854;48.510;-2.770;2023-09-18T07:31:16;2.80;;;1.35;;
73571;SDS011;61854;48.510;-2.770;2023-09-18T07:33:42;3.75;;;1.50;;
73571;SDS011;61854;48.510;-2.770;2023-09-18T07:36:08;3.53;;;1.40;;
73571;SDS011;61854;48.510;-2.770;2023-09-18T07:38:35;3.20;;;1.35;;
73571;SDS011;61854;48.510;-2.770;2023-09-18T07:41:01;6.75;;;1.48;;
73571;SDS011;61854;48.510;-2.770;2023-09-18T07:43:27;5.65;;;1.40;;
73571;SDS011;61854;48.510;-2.770;2023-09-18T07:45:53;2.75;;;1.20;;
73571;SDS011;61854;48.510;-2.770;2023-09-18T07:48:19;2.30;;;1.02;;
73571;SDS011;61854;48.510;-2.770;2023-09-18T07:50:46;3.50;;;1.40;;
73571;SDS011;61854;48.510;-2.770;2023-09-18T07:53:14;3.58;;;1.40;;
73571;SDS011;61854;48.510;-2.770;2023-09-18T07:55:40;3.95;;;1.13;;
73571;SDS011;61854;48.510;-2.770;2023-09-18T07:58:06;4.75;;;1.30;;
73571;SDS011;61854;48.510;-2.770;2023-09-18T08:00:32;3.95;;;1.15;;
73571;SDS011;61854;48.510;-2.770;2023-09-18T08:02:58;7.18;;;1.30;;
73571;SDS011;61854;48.510;-2.770;2023-09-18T08:05:26;3.42;;;1.55;;
73571;SDS011;61854;48.510;-2.770;2023-09-18T08:07:56;3.05;;;1.50;;
73571;SDS011;61854;48.510;-2.770;2023-09-18T08:10:24;5.28;;;1.45;;
73571;SDS011;61854;48.510;-2.770;2023-09-18T08:12:50;4.95;;;1.58;;
73571;SDS011;61854;48.510;-2.770;2023-09-18T08:15:18;4.07;;;1.55;;
73571;SDS011;61854;48.510;-2.770;2023-09-18T08:17:45;4.80;;;1.30;;
73571;SDS011;61854;48.510;-2.770;2023-09-18T08:20:11;2.65;;;1.27;;
73571;SDS011;61854;48.510;-2.770;2023-09-18T08:22:38;2.92;;;1.50;;
73571;SDS011;61854;48.510;-2.770;2023-09-18T08:25:05;4.10;;;1.55;;
73571;SDS011;61854;48.510;-2.770;2023-09-18T08:27:36;5.28;;;1.40;;
73571;SDS011;61854;48.510;-2.770;2023-09-18T08:30:09;2.78;;;1.40;;
73571;SDS011;61854;48.510;-2.770;2023-09-18T08:32:39;3.65;;;1.50;;
73571;SDS011;61854;48.510;-2.770;2023-09-18T08:35:05;5.07;;;1.30;;
73571;SDS011;61854;48.510;-2.770;2023-09-18T08:37:31;3.28;;;1.30;;
73571;SDS011;61854;48.510;-2.770;2023-09-18T08:39:57;3.10;;;1.45;;
73571;SDS011;61854;48.510;-2.770;2023-09-18T08:42:25;5.20;;;1.50;;
73571;SDS011;61854;48.510;-2.770;2023-09-18T08:44:56;3.97;;;1.38;;
73571;SDS011;61854;48.510;-2.770;2023-09-18T08:47:25;3.92;;;1.58;;
73571;SDS011;61854;48.510;-2.770;2023-09-18T08:49:52;3.47;;;1.58;;
73571;SDS011;61854;48.510;-2.770;2023-09-18T08:52:19;2.27;;;1.30;;
73571;SDS011;61854;48.510;-2.770;2023-09-18T08:54:46;3.28;;;1.30;;
73571;SDS011;61854;48.510;-2.770;2023-09-18T08:57:12;2.85;;;1.10;;
73571;SDS011;61854;48.510;-2.770;2023-09-18T08:59:38;2.65;;;1.25;;
73571;SDS011;61854;48.510;-2.770;2023-09-18T09:02:05;6.55;;;1.92;;
73571;SDS011;61854;48.510;-2.770;2023-09-18T09:04:31;3.85;;;1.40;;
73571;SDS011;61854;48.510;-2.770;2023-09-18T09:06:57;5.72;;;1.25;;
73571;SDS011;61854;48.510;-2.770;2023-09-18T09:09:24;3.05;;;1.30;;
73571;SDS011;61854;48.510;-2.770;2023-09-18T09:11:51;4.00;;;1.80;;
73571;SDS011;61854;48.510;-2.770;2023-09-18T09:14:17;5.40;;;1.52;;
73571;SDS011;61854;48.510;-2.770;2023-09-18T09:16:50;3.88;;;1.65;;
73571;SDS011;61854;48.510;-2.770;2023-09-18T09:19:17;4.72;;;1.83;;
73571;SDS011;61854;48.510;-2.770;2023-09-18T09:21:43;6.10;;;1.88;;
73571;SDS011;61854;48.510;-2.770;2023-09-18T09:24:10;4.35;;;1.80;;
73571;SDS011;61854;48.510;-2.770;2023-09-18T09:26:39;4.70;;;1.67;;
73571;SDS011;61854;48.510;-2.770;2023-09-18T09:29:19;2.90;;;1.40;;
73571;SDS011;61854;48.510;-2.770;2023-09-18T09:31:46;4.63;;;1.80;;
73571;SDS011;61854;48.510;-2.770;2023-09-18T09:34:12;7.97;;;1.88;;
73571;SDS011;61854;48.510;-2.770;2023-09-18T09:36:52;5.72;;;1.90;;
73571;SDS011;61854;48.510;-2.770;2023-09-18T09:39:19;4.78;;;1.58;;
73571;SDS011;61854;48.510;-2.770;2023-09-18T09:41:46;3.70;;;1.60;;
73571;SDS011;61854;48.510;-2.770;2023-09-18T09:44:14;5.85;;;1.63;;
73571;SDS011;61854;48.510;-2.770;2023-09-18T09:46:47;5.80;;;1.80;;
73571;SDS011;61854;48.510;-2.770;2023-09-18T09:49:14;7.57;;;1.85;;
73571;SDS011;61854;48.510;-2.770;2023-09-18T09:51:41;7.78;;;2.10;;
73571;SDS011;61854;48.510;-2.770;2023-09-18T09:54:07;6.07;;;1.77;;
73571;SDS011;61854;48.510;-2.770;2023-09-18T09:59:08;4.57;;;1.40;;
73571;SDS011;61854;48.510;-2.770;2023-09-18T10:01:34;4.68;;;1.77;;
73571;SDS011;61854;48.510;-2.770;2023-09-18T10:04:11;6.32;;;1.75;;
73571;SDS011;61854;48.510;-2.770;2023-09-18T10:06:38;5.68;;;2.03;;
73571;SDS011;61854;48.510;-2.770;2023-09-18T10:09:10;6.18;;;1.40;;
73571;SDS011;61854;48.510;-2.770;2023-09-18T10:14:12;5.47;;;1.40;;
73571;SDS011;61854;48.510;-2.770;2023-09-18T10:17:11;5.50;;;1.50;;
73571;SDS011;61854;48.510;-2.770;2023-09-18T10:19:45;5.28;;;1.70;;
73571;SDS011;61854;48.510;-2.770;2023-09-18T10:22:24;3.85;;;1.58;;
73571;SDS011;61854;48.510;-2.770;2023-09-18T10:27:45;9.30;;;1.83;;
73571;SDS011;61854;48.510;-2.770;2023-09-18T10:30:14;8.23;;;1.48;;
73571;SDS011;61854;48.510;-2.770;2023-09-18T10:32:44;5.15;;;1.15;;
73571;SDS011;61854;48.510;-2.770;2023-09-18T10:35:13;7.75;;;1.80;;
73571;SDS011;61854;48.510;-2.770;2023-09-18T10:37:43;6.60;;;1.90;;
73571;SDS011;61854;48.510;-2.770;2023-09-18T10:40:10;8.10;;;1.35;;
73571;SDS011;61854;48.510;-2.770;2023-09-18T10:42:40;5.05;;;1.45;;
73571;SDS011;61854;48.510;-2.770;2023-09-18T10:45:07;6.55;;;1.33;;
73571;SDS011;61854;48.510;-2.770;2023-09-18T10:47:41;5.28;;;1.73;;
73571;SDS011;61854;48.510;-2.770;2023-09-18T10:50:10;4.80;;;1.30;;
73571;SDS011;61854;48.510;-2.770;2023-09-18T10:52:36;3.65;;;1.10;;
73571;SDS011;61854;48.510;-2.770;2023-09-18T10:55:12;8.73;;;1.67;;
73571;SDS011;61854;48.510;-2.770;2023-09-18T10:57:49;4.00;;;1.40;;
73571;SDS011;61854;48.510;-2.770;2023-09-18T11:00:20;11.85;;;1.90;;
73571;SDS011;61854;48.510;-2.770;2023-09-18T11:05:28;8.13;;;2.13;;
73571;SDS011;61854;48.510;-2.770;2023-09-18T11:11:25;5.55;;;1.42;;
73571;SDS011;61854;48.510;-2.770;2023-09-18T11:13:51;8.48;;;1.90;;
73571;SDS011;61854;48.510;-2.770;2023-09-18T11:18:54;7.07;;;1.60;;
73571;SDS011;61854;48.510;-2.770;2023-09-18T11:21:24;5.90;;;1.50;;
73571;SDS011;61854;48.510;-2.770;2023-09-18T11:24:00;7.78;;;1.55;;
73571;SDS011;61854;48.510;-2.770;2023-09-18T11:29:05;5.78;;;1.45;;
73571;SDS011;61854;48.510;-2.770;2023-09-18T11:31:49;8.25;;;1.90;;
73571;SDS011;61854;48.510;-2.770;2023-09-18T11:34:27;9.85;;;1.88;;
73571;SDS011;61854;48.510;-2.770;2023-09-18T11:36:58;6.40;;;1.30;;
73571;SDS011;61854;48.510;-2.770;2023-09-18T11:39:37;5.93;;;1.90;;
73571;SDS011;61854;48.510;-2.770;2023-09-18T11:42:12;6.60;;;1.77;;
73571;SDS011;61854;48.510;-2.770;2023-09-18T11:44:42;7.32;;;1.90;;
73571;SDS011;61854;48.510;-2.770;2023-09-18T11:47:11;9.75;;;2.03;;
73571;SDS011;61854;48.510;-2.770;2023-09-18T11:50:01;7.55;;;1.73;;
73571;SDS011;61854;48.510;-2.770;2023-09-18T11:52:27;6.78;;;1.85;;
73571;SDS011;61854;48.510;-2.770;2023-09-18T11:54:58;6.35;;;1.52;;
73571;SDS011;61854;48.510;-2.770;2023-09-18T11:57:25;12.43;;;2.72;;
73571;SDS011;61854;48.510;-2.770;2023-09-18T11:59:52;6.97;;;1.80;;
73571;SDS011;61854;48.510;-2.770;2023-09-18T12:02:24;10.85;;;1.90;;
73571;SDS011;61854;48.510;-2.770;2023-09-18T12:05:04;10.05;;;1.67;;
73571;SDS011;61854;48.510;-2.770;2023-09-18T12:07:34;14.27;;;2.30;;
73571;SDS011;61854;48.510;-2.770;2023-09-18T12:10:00;9.82;;;2.17;;
73571;SDS011;61854;48.510;-2.770;2023-09-18T12:12:30;11.68;;;2.03;;
73571;SDS011;61854;48.510;-2.770;2023-09-18T12:14:56;12.02;;;2.30;;
73571;SDS011;61854;48.510;-2.770;2023-09-18T12:17:22;10.70;;;2.13;;
73571;SDS011;61854;48.510;-2.770;2023-09-18T12:19:54;11.98;;;2.33;;
73571;SDS011;61854;48.510;-2.770;2023-09-18T12:22:27;6.45;;;1.90;;
73571;SDS011;61854;48.510;-2.770;2023-09-18T12:25:07;6.82;;;1.60;;
73571;SDS011;61854;48.510;-2.770;2023-09-18T12:27:40;7.28;;;1.75;;
73571;SDS011;61854;48.510;-2.770;2023-09-18T12:30:07;10.35;;;2.28;;
73571;SDS011;61854;48.510;-2.770;2023-09-18T12:32:35;9.30;;;1.92;;
73571;SDS011;61854;48.510;-2.770;2023-09-18T12:35:02;11.63;;;1.90;;
73571;SDS011;61854;48.510;-2.770;2023-09-18T12:37:32;6.90;;;1.92;;
73571;SDS011;61854;48.510;-2.770;2023-09-18T12:39:59;6.75;;;1.55;;
73571;SDS011;61854;48.510;-2.770;2023-09-18T12:42:25;8.93;;;2.00;;
73571;SDS011;61854;48.510;-2.770;2023-09-18T12:44:51;9.05;;;1.90;;
73571;SDS011;61854;48.510;-2.770;2023-09-18T12:47:19;11.25;;;2.00;;
73571;SDS011;61854;48.510;-2.770;2023-09-18T12:49:45;13.95;;;2.60;;
73571;SDS011;61854;48.510;-2.770;2023-09-18T12:52:12;12.68;;;1.90;;
73571;SDS011;61854;48.510;-2.770;2023-09-18T12:54:39;10.63;;;2.15;;
73571;SDS011;61854;48.510;-2.770;2023-09-18T12:57:06;11.30;;;2.35;;
73571;SDS011;61854;48.510;-2.770;2023-09-18T12:59:34;11.77;;;2.28;;
73571;SDS011;61854;48.510;-2.770;2023-09-18T13:02:01;13.38;;;2.78;;
73571;SDS011;61854;48.510;-2.770;2023-09-18T13:04:30;10.23;;;1.80;;
73571;SDS011;61854;48.510;-2.770;2023-09-18T13:07:09;13.88;;;2.17;;
73571;SDS011;61854;48.510;-2.770;2023-09-18T13:09:37;14.55;;;2.20;;
73571;SDS011;61854;48.510;-2.770;2023-09-18T13:12:03;10.75;;;2.05;;
73571;SDS011;61854;48.510;-2.770;2023-09-18T13:14:29;10.25;;;2.13;;
73571;SDS011;61854;48.510;-2.770;2023-09-18T13:17:01;9.13;;;1.85;;
73571;SDS011;61854;48.510;-2.770;2023-09-18T13:19:30;8.85;;;1.60;;
73571;SDS011;61854;48.510;-2.770;2023-09-18T13:21:56;9.07;;;1.90;;
73571;SDS011;61854;48.510;-2.770;2023-09-18T13:24:30;11.10;;;2.28;;
73571;SDS011;61854;48.510;-2.770;2023-09-18T13:26:56;9.82;;;1.80;;
73571;SDS011;61854;48.510;-2.770;2023-09-18T13:29:24;9.38;;;1.77;;
73571;SDS011;61854;48.510;-2.770;2023-09-18T13:31:50;12.40;;;2.08;;
73571;SDS011;61854;48.510;-2.770;2023-09-18T13:34:16;10.85;;;2.25;;
73571;SDS011;61854;48.510;-2.770;2023-09-18T13:36:46;11.70;;;2.03;;
73571;SDS011;61854;48.510;-2.770;2023-09-18T13:39:12;9.88;;;1.92;;
73571;SDS011;61854;48.510;-2.770;2023-09-18T13:41:39;9.25;;;1.50;;
73571;SDS011;61854;48.510;-2.770;2023-09-18T13:44:06;7.50;;;1.90;;
73571;SDS011;61854;48.510;-2.770;2023-09-18T13:46:32;9.00;;;1.77;;
73571;SDS011;61854;48.510;-2.770;2023-09-18T13:49:01;9.23;;;1.77;;
73571;SDS011;61854;48.510;-2.770;2023-09-18T13:51:28;10.98;;;1.92;;
73571;SDS011;61854;48.510;-2.770;2023-09-18T13:53:55;9.15;;;1.75;;
73571;SDS011;61854;48.510;-2.770;2023-09-18T13:56:21;7.95;;;1.80;;
73571;SDS011;61854;48.510;-2.770;2023-09-18T13:58:47;9.30;;;2.10;;
73571;SDS011;61854;48.510;-2.770;2023-09-18T14:01:13;7.05;;;1.80;;
73571;SDS011;61854;48.510;-2.770;2023-09-18T14:03:40;7.30;;;1.58;;
73571;SDS011;61854;48.510;-2.770;2023-09-18T14:06:10;7.63;;;1.55;;
73571;SDS011;61854;48.510;-2.770;2023-09-18T14:08:35;12.43;;;1.70;;
73571;SDS011;61854;48.510;-2.770;2023-09-18T14:11:04;8.15;;;1.67;;
73571;SDS011;61854;48.510;-2.770;2023-09-18T14:13:31;7.78;;;1.63;;
73571;SDS011;61854;48.510;-2.770;2023-09-18T14:16:00;9.40;;;1.92;;
73571;SDS011;61854;48.510;-2.770;2023-09-18T14:18:28;10.23;;;1.83;;
73571;SDS011;61854;48.510;-2.770;2023-09-18T14:20:54;7.50;;;1.90;;
73571;SDS011;61854;48.510;-2.770;2023-09-18T14:23:20;8.20;;;1.67;;
73571;SDS011;61854;48.510;-2.770;2023-09-18T14:25:46;4.75;;;1.48;;
73571;SDS011;61854;48.510;-2.770;2023-09-18T14:28:12;13.05;;;1.77;;
73571;SDS011;61854;48.510;-2.770;2023-09-18T14:30:38;8.40;;;1.77;;
73571;SDS011;61854;48.510;-2.770;2023-09-18T14:33:04;12.18;;;2.42;;
73571;SDS011;61854;48.510;-2.770;2023-09-18T14:35:30;7.47;;;1.88;;
73571;SDS011;61854;48.510;-2.770;2023-09-18T14:37:55;9.80;;;1.70;;
73571;SDS011;61854;48.510;-2.770;2023-09-18T14:40:21;8.07;;;1.70;;
73571;SDS011;61854;48.510;-2.770;2023-09-18T14:42:46;9.98;;;2.10;;
73571;SDS011;61854;48.510;-2.770;2023-09-18T14:45:12;11.98;;;2.20;;
73571;SDS011;61854;48.510;-2.770;2023-09-18T14:47:38;9.43;;;1.98;;
73571;SDS011;61854;48.510;-2.770;2023-09-18T14:50:04;8.68;;;1.90;;
73571;SDS011;61854;48.510;-2.770;2023-09-18T14:52:30;7.85;;;1.80;;
73571;SDS011;61854;48.510;-2.770;2023-09-18T14:54:57;14.02;;;2.10;;
73571;SDS011;61854;48.510;-2.770;2023-09-18T14:57:24;5.05;;;1.23;;
73571;SDS011;61854;48.510;-2.770;2023-09-18T14:59:51;8.00;;;1.67;;
73571;SDS011;61854;48.510;-2.770;2023-09-18T15:02:17;9.00;;;2.13;;